sensor_id;sensor_type;location;lat;lon;timestamp;temperature;humidity
29575;DHT22;16507;51.046;6.406;2022-12-05T00:00:57;2.10;99.90
29575;DHT22;16507;51.046;6.406;2022-12-05T00:03:24;2.30;99.90
29575;DHT22;16507;51.046;6.406;2022-12-05T00:05:50;2.20;99.90
29575;DHT22;16507;51.046;6.406;2022-12-05T00:08:16;2.30;99.90
29575;DHT22;16507;51.046;6.406;2022-12-05T00:10:42;2.30;99.90
29575;DHT22;16507;51.046;6.406;2022-12-05T00:13:08;2.00;99.90
29575;DHT22;16507;51.046;6.406;2022-12-05T00:15:38;2.20;99.90
29575;DHT22;16507;51.046;6.406;2022-12-05T00:18:04;2.20;99.90
29575;DHT22;16507;51.046;6.406;2022-12-05T00:20:30;2.00;99.90
29575;DHT22;16507;51.046;6.406;2022-12-05T00:22:55;2.00;99.90
29575;DHT22;16507;51.046;6.406;2022-12-05T00:25:21;2.00;99.90
29575;DHT22;16507;51.046;6.406;2022-12-05T00:27:46;2.10;99.90
29575;DHT22;16507;51.046;6.406;2022-12-05T00:30:12;2.20;99.90
29575;DHT22;16507;51.046;6.406;2022-12-05T00:32:38;2.10;99.90
29575;DHT22;16507;51.046;6.406;2022-12-05T00:35:03;2.40;99.90
29575;DHT22;16507;51.046;6.406;2022-12-05T00:37:29;2.30;99.90
29575;DHT22;16507;51.046;6.406;2022-12-05T00:39:55;2.30;99.90
29575;DHT22;16507;51.046;6.406;2022-12-05T00:42:20;2.10;99.90
29575;DHT22;16507;51.046;6.406;2022-12-05T00:44:48;2.10;99.90
29575;DHT22;16507;51.046;6.406;2022-12-05T00:47:14;2.10;99.90
29575;DHT22;16507;51.046;6.406;2022-12-05T00:49:39;2.20;99.90
29575;DHT22;16507;51.046;6.406;2022-12-05T00:52:05;2.20;99.90
29575;DHT22;16507;51.046;6.406;2022-12-05T00:54:31;2.30;99.90
29575;DHT22;16507;51.046;6.406;2022-12-05T00:56:56;2.30;99.90
29575;DHT22;16507;51.046;6.406;2022-12-05T00:59:22;2.40;99.90
29575;DHT22;16507;51.046;6.406;2022-12-05T01:01:49;2.10;99.90
29575;DHT22;16507;51.046;6.406;2022-12-05T01:04:21;2.40;99.90
29575;DHT22;16507;51.046;6.406;2022-12-05T01:06:47;2.30;99.90
29575;DHT22;16507;51.046;6.406;2022-12-05T01:09:15;2.40;99.90
29575;DHT22;16507;51.046;6.406;2022-12-05T01:11:42;2.10;99.90
29575;DHT22;16507;51.046;6.406;2022-12-05T01:14:09;2.10;99.90
29575;DHT22;16507;51.046;6.406;2022-12-05T01:16:36;2.30;99.90
29575;DHT22;16507;51.046;6.406;2022-12-05T01:19:09;2.20;99.90
29575;DHT22;16507;51.046;6.406;2022-12-05T01:21:35;2.20;99.90
29575;DHT22;16507;51.046;6.406;2022-12-05T01:24:01;2.40;99.90
29575;DHT22;16507;51.046;6.406;2022-12-05T01:26:26;2.40;99.90
29575;DHT22;16507;51.046;6.406;2022-12-05T01:28:52;2.00;99.90
29575;DHT22;16507;51.046;6.406;2022-12-05T01:31:23;2.30;99.90
29575;DHT22;16507;51.046;6.406;2022-12-05T01:33:50;2.20;99.90
29575;DHT22;16507;51.046;6.406;2022-12-05T01:36:16;2.10;99.90
29575;DHT22;16507;51.046;6.406;2022-12-05T01:38:42;2.20;99.90
29575;DHT22;16507;51.046;6.406;2022-12-05T01:41:11;2.10;99.90
29575;DHT22;16507;51.046;6.406;2022-12-05T01:44:03;2.20;99.90
29575;DHT22;16507;51.046;6.406;2022-12-05T01:46:38;2.30;99.90
29575;DHT22;16507;51.046;6.406;2022-12-05T01:49:10;2.00;99.90
29575;DHT22;16507;51.046;6.406;2022-12-05T01:51:40;2.40;99.90
29575;DHT22;16507;51.046;6.406;2022-12-05T01:54:08;2.20;99.90
29575;DHT22;16507;51.046;6.406;2022-12-05T01:56:35;2.20;99.90
29575;DHT22;16507;51.046;6.406;2022-12-05T01:59:03;2.40;99.90
29575;DHT22;16507;51.046;6.406;2022-12-05T02:01:29;2.40;99.90
29575;DHT22;16507;51.046;6.406;2022-12-05T02:03:57;2.10;99.90
29575;DHT22;16507;51.046;6.406;2022-12-05T02:06:24;2.20;99.90
29575;DHT22;16507;51.046;6.406;2022-12-05T02:08:52;2.20;99.90
29575;DHT22;16507;51.046;6.406;2022-12-05T02:11:18;2.40;99.90
29575;DHT22;16507;51.046;6.406;2022-12-05T02:16:35;2.20;99.90
29575;DHT22;16507;51.046;6.406;2022-12-05T02:24:54;2.50;99.90
29575;DHT22;16507;51.046;6.406;2022-12-05T02:30:10;2.20;99.90
29575;DHT22;16507;51.046;6.406;2022-12-05T02:33:10;2.20;99.90
29575;DHT22;16507;51.046;6.406;2022-12-05T02:39:14;2.10;99.90
29575;DHT22;16507;51.046;6.406;2022-12-05T02:41:23;2.40;99.90
29575;DHT22;16507;51.046;6.406;2022-12-05T02:44:08;2.40;99.90
29575;DHT22;16507;51.046;6.406;2022-12-05T02:46:39;2.10;99.90
29575;DHT22;16507;51.046;6.406;2022-12-05T02:49:18;2.30;99.90
29575;DHT22;16507;51.046;6.406;2022-12-05T02:51:48;2.10;99.90
29575;DHT22;16507;51.046;6.406;2022-12-05T02:54:22;2.30;99.90
29575;DHT22;16507;51.046;6.406;2022-12-05T02:56:49;2.30;99.90
29575;DHT22;16507;51.046;6.406;2022-12-05T02:59:16;2.30;99.90
29575;DHT22;16507;51.046;6.406;2022-12-05T03:01:44;2.30;99.90
29575;DHT22;16507;51.046;6.406;2022-12-05T03:10:57;2.30;99.90
29575;DHT22;16507;51.046;6.406;2022-12-05T03:13:26;2.00;99.90
29575;DHT22;16507;51.046;6.406;2022-12-05T03:15:57;2.30;99.90
29575;DHT22;16507;51.046;6.406;2022-12-05T03:18:29;2.00;99.90
29575;DHT22;16507;51.046;6.406;2022-12-05T03:21:01;2.00;99.90
29575;DHT22;16507;51.046;6.406;2022-12-05T03:23:38;2.30;99.90
29575;DHT22;16507;51.046;6.406;2022-12-05T03:26:21;1.90;99.90
29575;DHT22;16507;51.046;6.406;2022-12-05T03:32:21;2.20;99.90
29575;DHT22;16507;51.046;6.406;2022-12-05T03:37:55;1.90;99.90
29575;DHT22;16507;51.046;6.406;2022-12-05T03:40:41;1.90;99.90
29575;DHT22;16507;51.046;6.406;2022-12-05T03:46:05;2.10;99.90
29575;DHT22;16507;51.046;6.406;2022-12-05T03:48:48;2.10;99.90
29575;DHT22;16507;51.046;6.406;2022-12-05T03:51:19;1.90;99.90
29575;DHT22;16507;51.046;6.406;2022-12-05T03:53:50;1.90;99.90
29575;DHT22;16507;51.046;6.406;2022-12-05T03:56:35;1.90;99.90
29575;DHT22;16507;51.046;6.406;2022-12-05T03:59:18;2.20;99.90
29575;DHT22;16507;51.046;6.406;2022-12-05T04:01:47;2.20;99.90
29575;DHT22;16507;51.046;6.406;2022-12-05T04:04:17;1.80;99.90
29575;DHT22;16507;51.046;6.406;2022-12-05T04:06:49;1.80;99.90
29575;DHT22;16507;51.046;6.406;2022-12-05T04:09:45;2.10;99.90
29575;DHT22;16507;51.046;6.406;2022-12-05T04:12:18;1.80;99.90
29575;DHT22;16507;51.046;6.406;2022-12-05T04:14:50;1.70;99.90
29575;DHT22;16507;51.046;6.406;2022-12-05T04:17:39;1.90;99.90
29575;DHT22;16507;51.046;6.406;2022-12-05T04:20:16;2.00;99.90
29575;DHT22;16507;51.046;6.406;2022-12-05T04:23:02;1.70;99.90
29575;DHT22;16507;51.046;6.406;2022-12-05T04:26:32;2.00;99.90
29575;DHT22;16507;51.046;6.406;2022-12-05T04:28:41;1.70;99.90
29575;DHT22;16507;51.046;6.406;2022-12-05T04:31:16;1.80;99.90
29575;DHT22;16507;51.046;6.406;2022-12-05T04:33:57;1.70;99.90
29575;DHT22;16507;51.046;6.406;2022-12-05T04:39:19;1.70;99.90
29575;DHT22;16507;51.046;6.406;2022-12-05T04:42:02;2.00;99.90
29575;DHT22;16507;51.046;6.406;2022-12-05T04:44:39;1.70;99.90
29575;DHT22;16507;51.046;6.406;2022-12-05T04:47:07;1.80;99.90
29575;DHT22;16507;51.046;6.406;2022-12-05T04:49:34;1.60;99.90
29575;DHT22;16507;51.046;6.406;2022-12-05T04:52:06;1.80;99.90
29575;DHT22;16507;51.046;6.406;2022-12-05T04:57:06;2.00;99.90
29575;DHT22;16507;51.046;6.406;2022-12-05T04:59:33;1.90;99.90
29575;DHT22;16507;51.046;6.406;2022-12-05T05:02:08;1.80;99.90
29575;DHT22;16507;51.046;6.406;2022-12-05T05:04:38;1.90;99.90
29575;DHT22;16507;51.046;6.406;2022-12-05T05:07:10;1.50;99.90
29575;DHT22;16507;51.046;6.406;2022-12-05T05:09:37;1.80;99.90
29575;DHT22;16507;51.046;6.406;2022-12-05T05:12:04;1.60;99.90
29575;DHT22;16507;51.046;6.406;2022-12-05T05:14:31;1.90;99.90
29575;DHT22;16507;51.046;6.406;2022-12-05T05:16:57;1.90;99.90
29575;DHT22;16507;51.046;6.406;2022-12-05T05:19:23;1.50;99.90
29575;DHT22;16507;51.046;6.406;2022-12-05T05:21:50;1.70;99.90
29575;DHT22;16507;51.046;6.406;2022-12-05T05:24:16;1.60;99.90
29575;DHT22;16507;51.046;6.406;2022-12-05T05:26:44;1.70;99.90
29575;DHT22;16507;51.046;6.406;2022-12-05T05:29:10;1.50;99.90
29575;DHT22;16507;51.046;6.406;2022-12-05T05:31:40;1.80;99.90
29575;DHT22;16507;51.046;6.406;2022-12-05T05:34:06;1.50;99.90
29575;DHT22;16507;51.046;6.406;2022-12-05T05:36:33;1.40;99.90
29575;DHT22;16507;51.046;6.406;2022-12-05T05:39:00;1.80;99.90
29575;DHT22;16507;51.046;6.406;2022-12-05T05:41:28;1.40;99.90
29575;DHT22;16507;51.046;6.406;2022-12-05T05:43:54;1.50;99.90
29575;DHT22;16507;51.046;6.406;2022-12-05T05:46:22;1.30;99.90
29575;DHT22;16507;51.046;6.406;2022-12-05T05:48:48;1.40;99.90
29575;DHT22;16507;51.046;6.406;2022-12-05T05:51:15;1.60;99.90
29575;DHT22;16507;51.046;6.406;2022-12-05T05:53:41;1.50;99.90
29575;DHT22;16507;51.046;6.406;2022-12-05T05:56:09;1.40;99.90
29575;DHT22;16507;51.046;6.406;2022-12-05T05:58:35;1.30;99.90
29575;DHT22;16507;51.046;6.406;2022-12-05T06:01:06;1.50;99.90
29575;DHT22;16507;51.046;6.406;2022-12-05T06:03:32;1.30;99.90
29575;DHT22;16507;51.046;6.406;2022-12-05T06:06:00;1.50;99.90
29575;DHT22;16507;51.046;6.406;2022-12-05T06:08:34;1.60;99.90
29575;DHT22;16507;51.046;6.406;2022-12-05T06:11:09;1.60;99.90
29575;DHT22;16507;51.046;6.406;2022-12-05T06:13:36;1.50;99.90
29575;DHT22;16507;51.046;6.406;2022-12-05T06:16:03;1.50;99.90
29575;DHT22;16507;51.046;6.406;2022-12-05T06:18:29;1.10;99.90
29575;DHT22;16507;51.046;6.406;2022-12-05T06:20:56;1.50;99.90
29575;DHT22;16507;51.046;6.406;2022-12-05T06:23:22;1.50;99.90
29575;DHT22;16507;51.046;6.406;2022-12-05T06:25:50;1.10;99.90
29575;DHT22;16507;51.046;6.406;2022-12-05T06:28:16;1.40;99.90
29575;DHT22;16507;51.046;6.406;2022-12-05T06:30:42;1.20;99.90
29575;DHT22;16507;51.046;6.406;2022-12-05T06:33:10;1.20;99.90
29575;DHT22;16507;51.046;6.406;2022-12-05T06:35:36;1.30;99.90
29575;DHT22;16507;51.046;6.406;2022-12-05T06:38:02;1.20;99.90
29575;DHT22;16507;51.046;6.406;2022-12-05T06:40:27;1.30;99.90
29575;DHT22;16507;51.046;6.406;2022-12-05T06:42:53;1.20;99.90
29575;DHT22;16507;51.046;6.406;2022-12-05T06:45:19;1.20;99.90
29575;DHT22;16507;51.046;6.406;2022-12-05T06:47:44;1.50;99.90
29575;DHT22;16507;51.046;6.406;2022-12-05T06:50:10;1.20;99.90
29575;DHT22;16507;51.046;6.406;2022-12-05T06:52:36;1.20;99.90
29575;DHT22;16507;51.046;6.406;2022-12-05T06:55:01;1.20;99.90
29575;DHT22;16507;51.046;6.406;2022-12-05T06:57:28;1.50;99.90
29575;DHT22;16507;51.046;6.406;2022-12-05T06:59:53;1.40;99.90
29575;DHT22;16507;51.046;6.406;2022-12-05T07:02:38;1.60;99.90
29575;DHT22;16507;51.046;6.406;2022-12-05T07:05:06;1.40;99.90
29575;DHT22;16507;51.046;6.406;2022-12-05T07:07:32;1.20;99.90
29575;DHT22;16507;51.046;6.406;2022-12-05T07:09:57;1.20;99.90
29575;DHT22;16507;51.046;6.406;2022-12-05T07:12:23;1.20;99.90
29575;DHT22;16507;51.046;6.406;2022-12-05T07:14:49;1.30;99.90
29575;DHT22;16507;51.046;6.406;2022-12-05T07:17:18;1.20;99.90
29575;DHT22;16507;51.046;6.406;2022-12-05T07:19:49;1.20;99.90
29575;DHT22;16507;51.046;6.406;2022-12-05T07:22:16;1.40;99.90
29575;DHT22;16507;51.046;6.406;2022-12-05T07:24:45;1.50;99.90
29575;DHT22;16507;51.046;6.406;2022-12-05T07:27:11;1.30;99.90
29575;DHT22;16507;51.046;6.406;2022-12-05T07:29:37;1.40;99.90
29575;DHT22;16507;51.046;6.406;2022-12-05T07:32:03;1.40;99.90
29575;DHT22;16507;51.046;6.406;2022-12-05T07:34:29;1.50;99.90
29575;DHT22;16507;51.046;6.406;2022-12-05T07:36:54;1.40;99.90
29575;DHT22;16507;51.046;6.406;2022-12-05T07:39:20;1.30;99.90
29575;DHT22;16507;51.046;6.406;2022-12-05T07:41:45;1.20;99.90
29575;DHT22;16507;51.046;6.406;2022-12-05T07:44:12;1.30;99.90
29575;DHT22;16507;51.046;6.406;2022-12-05T07:46:38;1.40;99.90
29575;DHT22;16507;51.046;6.406;2022-12-05T07:49:04;1.10;99.90
29575;DHT22;16507;51.046;6.406;2022-12-05T07:51:30;1.10;99.90
29575;DHT22;16507;51.046;6.406;2022-12-05T07:53:57;1.40;99.90
29575;DHT22;16507;51.046;6.406;2022-12-05T07:56:22;1.30;99.90
29575;DHT22;16507;51.046;6.406;2022-12-05T07:58:48;1.30;99.90
29575;DHT22;16507;51.046;6.406;2022-12-05T08:01:32;1.00;99.90
29575;DHT22;16507;51.046;6.406;2022-12-05T08:03:58;1.10;99.90
29575;DHT22;16507;51.046;6.406;2022-12-05T08:06:29;1.10;99.90
29575;DHT22;16507;51.046;6.406;2022-12-05T08:08:55;1.30;99.90
29575;DHT22;16507;51.046;6.406;2022-12-05T08:11:23;1.10;99.90
29575;DHT22;16507;51.046;6.406;2022-12-05T08:13:49;1.00;99.90
29575;DHT22;16507;51.046;6.406;2022-12-05T08:16:17;1.20;99.90
29575;DHT22;16507;51.046;6.406;2022-12-05T08:18:44;1.00;99.90
29575;DHT22;16507;51.046;6.406;2022-12-05T08:21:13;1.30;99.90
29575;DHT22;16507;51.046;6.406;2022-12-05T08:23:40;1.30;99.90
29575;DHT22;16507;51.046;6.406;2022-12-05T08:26:15;1.20;99.90
29575;DHT22;16507;51.046;6.406;2022-12-05T08:28:42;1.20;99.90
29575;DHT22;16507;51.046;6.406;2022-12-05T08:31:13;1.00;99.90
29575;DHT22;16507;51.046;6.406;2022-12-05T08:33:39;1.20;99.90
29575;DHT22;16507;51.046;6.406;2022-12-05T08:36:07;1.00;99.90
29575;DHT22;16507;51.046;6.406;2022-12-05T08:38:34;1.00;99.90
29575;DHT22;16507;51.046;6.406;2022-12-05T08:41:05;1.30;99.90
29575;DHT22;16507;51.046;6.406;2022-12-05T08:43:32;1.30;99.90
29575;DHT22;16507;51.046;6.406;2022-12-05T08:45:58;1.30;99.90
29575;DHT22;16507;51.046;6.406;2022-12-05T08:48:28;1.40;99.90
29575;DHT22;16507;51.046;6.406;2022-12-05T08:50:54;1.40;99.90
29575;DHT22;16507;51.046;6.406;2022-12-05T08:53:20;1.20;99.90
29575;DHT22;16507;51.046;6.406;2022-12-05T08:55:46;1.10;99.90
29575;DHT22;16507;51.046;6.406;2022-12-05T08:58:11;1.20;99.90
29575;DHT22;16507;51.046;6.406;2022-12-05T09:00:38;1.20;99.90
29575;DHT22;16507;51.046;6.406;2022-12-05T09:03:03;1.40;99.90
29575;DHT22;16507;51.046;6.406;2022-12-05T09:05:29;1.20;99.90
29575;DHT22;16507;51.046;6.406;2022-12-05T09:07:55;1.20;99.90
29575;DHT22;16507;51.046;6.406;2022-12-05T09:10:21;1.50;99.90
29575;DHT22;16507;51.046;6.406;2022-12-05T09:12:47;1.30;99.90
29575;DHT22;16507;51.046;6.406;2022-12-05T09:15:14;1.40;99.90
29575;DHT22;16507;51.046;6.406;2022-12-05T09:17:40;1.50;99.90
29575;DHT22;16507;51.046;6.406;2022-12-05T09:20:06;1.40;99.90
29575;DHT22;16507;51.046;6.406;2022-12-05T09:22:33;1.80;99.90
29575;DHT22;16507;51.046;6.406;2022-12-05T09:24:58;1.60;99.90
29575;DHT22;16507;51.046;6.406;2022-12-05T09:27:27;1.50;99.90
29575;DHT22;16507;51.046;6.406;2022-12-05T09:29:52;1.60;99.90
29575;DHT22;16507;51.046;6.406;2022-12-05T09:32:18;1.70;99.90
29575;DHT22;16507;51.046;6.406;2022-12-05T09:34:46;2.00;99.90
29575;DHT22;16507;51.046;6.406;2022-12-05T09:37:12;1.70;99.90
29575;DHT22;16507;51.046;6.406;2022-12-05T09:39:37;2.00;99.90
29575;DHT22;16507;51.046;6.406;2022-12-05T09:45:17;1.90;99.90
29575;DHT22;16507;51.046;6.406;2022-12-05T09:50:31;1.70;99.90
29575;DHT22;16507;51.046;6.406;2022-12-05T09:55:59;1.70;99.90
29575;DHT22;16507;51.046;6.406;2022-12-05T09:58:42;1.70;99.90
29575;DHT22;16507;51.046;6.406;2022-12-05T10:01:32;1.70;99.90
29575;DHT22;16507;51.046;6.406;2022-12-05T10:09:26;1.50;99.90
29575;DHT22;16507;51.046;6.406;2022-12-05T10:11:59;1.70;99.90
29575;DHT22;16507;51.046;6.406;2022-12-05T10:17:35;1.30;99.90
29575;DHT22;16507;51.046;6.406;2022-12-05T10:20:14;1.30;99.90
29575;DHT22;16507;51.046;6.406;2022-12-05T10:22:51;1.40;99.90
29575;DHT22;16507;51.046;6.406;2022-12-05T10:25:20;1.40;99.90
29575;DHT22;16507;51.046;6.406;2022-12-05T10:28:02;1.20;99.90
29575;DHT22;16507;51.046;6.406;2022-12-05T10:30:33;1.20;99.90
29575;DHT22;16507;51.046;6.406;2022-12-05T10:33:22;1.10;99.90
29575;DHT22;16507;51.046;6.406;2022-12-05T10:35:47;1.10;99.90
29575;DHT22;16507;51.046;6.406;2022-12-05T10:38:26;1.40;99.90
29575;DHT22;16507;51.046;6.406;2022-12-05T10:40:56;1.00;99.90
29575;DHT22;16507;51.046;6.406;2022-12-05T10:43:27;1.40;99.90
29575;DHT22;16507;51.046;6.406;2022-12-05T10:45:54;1.10;99.90
29575;DHT22;16507;51.046;6.406;2022-12-05T10:48:20;0.90;99.90
29575;DHT22;16507;51.046;6.406;2022-12-05T10:50:49;1.20;99.90
29575;DHT22;16507;51.046;6.406;2022-12-05T10:53:22;1.40;99.90
29575;DHT22;16507;51.046;6.406;2022-12-05T10:55:49;0.90;99.90
29575;DHT22;16507;51.046;6.406;2022-12-05T10:58:20;1.40;99.90
29575;DHT22;16507;51.046;6.406;2022-12-05T11:00:51;1.40;99.90
29575;DHT22;16507;51.046;6.406;2022-12-05T11:03:27;1.20;99.90
29575;DHT22;16507;51.046;6.406;2022-12-05T11:05:56;1.60;99.90
29575;DHT22;16507;51.046;6.406;2022-12-05T11:08:28;1.60;99.90
29575;DHT22;16507;51.046;6.406;2022-12-05T11:11:07;1.00;99.90
29575;DHT22;16507;51.046;6.406;2022-12-05T11:13:33;1.00;99.90
29575;DHT22;16507;51.046;6.406;2022-12-05T11:16:00;1.70;99.90
29575;DHT22;16507;51.046;6.406;2022-12-05T11:18:29;1.70;99.90
29575;DHT22;16507;51.046;6.406;2022-12-05T11:20:57;1.60;99.90
29575;DHT22;16507;51.046;6.406;2022-12-05T11:23:32;1.30;99.90
29575;DHT22;16507;51.046;6.406;2022-12-05T11:25:58;1.80;99.90
29575;DHT22;16507;51.046;6.406;2022-12-05T11:28:32;1.70;99.90
29575;DHT22;16507;51.046;6.406;2022-12-05T11:36:45;1.70;99.90
29575;DHT22;16507;51.046;6.406;2022-12-05T11:39:12;1.70;99.90
29575;DHT22;16507;51.046;6.406;2022-12-05T11:42:05;1.60;99.90
29575;DHT22;16507;51.046;6.406;2022-12-05T11:50:48;1.10;99.90
29575;DHT22;16507;51.046;6.406;2022-12-05T11:53:23;1.40;99.90
29575;DHT22;16507;51.046;6.406;2022-12-05T12:09:51;2.00;99.90
29575;DHT22;16507;51.046;6.406;2022-12-05T12:12:41;1.90;99.90
29575;DHT22;16507;51.046;6.406;2022-12-05T12:20:55;1.70;99.90
29575;DHT22;16507;51.046;6.406;2022-12-05T12:26:11;1.50;99.90
29575;DHT22;16507;51.046;6.406;2022-12-05T12:31:42;1.40;99.90
29575;DHT22;16507;51.046;6.406;2022-12-05T12:39:57;1.90;99.90
29575;DHT22;16507;51.046;6.406;2022-12-05T12:42:34;1.70;99.90
29575;DHT22;16507;51.046;6.406;2022-12-05T12:45:24;1.80;99.90
29575;DHT22;16507;51.046;6.406;2022-12-05T12:48:16;1.40;99.90
29575;DHT22;16507;51.046;6.406;2022-12-05T12:50:51;1.30;99.90
29575;DHT22;16507;51.046;6.406;2022-12-05T12:53:41;1.40;99.90
29575;DHT22;16507;51.046;6.406;2022-12-05T12:58:53;1.80;99.90
29575;DHT22;16507;51.046;6.406;2022-12-05T13:06:52;1.70;99.90
29575;DHT22;16507;51.046;6.406;2022-12-05T13:09:35;1.20;99.90
29575;DHT22;16507;51.046;6.406;2022-12-05T13:12:18;1.30;99.90
29575;DHT22;16507;51.046;6.406;2022-12-05T13:14:59;1.70;99.90
29575;DHT22;16507;51.046;6.406;2022-12-05T13:17:25;1.60;99.90
29575;DHT22;16507;51.046;6.406;2022-12-05T13:19:52;1.70;99.90
29575;DHT22;16507;51.046;6.406;2022-12-05T13:22:22;1.20;99.90
29575;DHT22;16507;51.046;6.406;2022-12-05T13:24:54;1.60;99.90
29575;DHT22;16507;51.046;6.406;2022-12-05T13:27:25;1.30;99.90
29575;DHT22;16507;51.046;6.406;2022-12-05T13:29:56;1.10;99.90
29575;DHT22;16507;51.046;6.406;2022-12-05T13:32:30;1.60;99.90
29575;DHT22;16507;51.046;6.406;2022-12-05T13:35:11;1.50;99.90
29575;DHT22;16507;51.046;6.406;2022-12-05T13:37:46;1.00;99.90
29575;DHT22;16507;51.046;6.406;2022-12-05T13:40:33;1.50;99.90
29575;DHT22;16507;51.046;6.406;2022-12-05T13:43:22;1.00;99.90
29575;DHT22;16507;51.046;6.406;2022-12-05T13:46:05;1.30;99.90
29575;DHT22;16507;51.046;6.406;2022-12-05T13:48:34;1.40;99.90
29575;DHT22;16507;51.046;6.406;2022-12-05T13:51:52;1.00;99.90
29575;DHT22;16507;51.046;6.406;2022-12-05T13:54:15;1.20;99.90
29575;DHT22;16507;51.046;6.406;2022-12-05T13:56:57;1.40;99.90
29575;DHT22;16507;51.046;6.406;2022-12-05T14:00:01;1.20;99.90
29575;DHT22;16507;51.046;6.406;2022-12-05T14:07:54;1.50;99.90
29575;DHT22;16507;51.046;6.406;2022-12-05T14:13:36;1.10;99.90
29575;DHT22;16507;51.046;6.406;2022-12-05T14:15:52;1.40;99.90
29575;DHT22;16507;51.046;6.406;2022-12-05T14:18:43;1.50;99.90
29575;DHT22;16507;51.046;6.406;2022-12-05T14:21:17;0.90;99.90
29575;DHT22;16507;51.046;6.406;2022-12-05T14:35:13;1.50;99.90
29575;DHT22;16507;51.046;6.406;2022-12-05T14:40:27;1.20;99.90
29575;DHT22;16507;51.046;6.406;2022-12-05T14:50:51;1.00;99.90
29575;DHT22;16507;51.046;6.406;2022-12-05T14:55:44;1.40;99.90
29575;DHT22;16507;51.046;6.406;2022-12-05T15:01:23;1.30;99.90
29575;DHT22;16507;51.046;6.406;2022-12-05T15:04:18;1.40;99.90
29575;DHT22;16507;51.046;6.406;2022-12-05T15:12:40;1.30;99.90
29575;DHT22;16507;51.046;6.406;2022-12-05T15:17:50;1.20;99.90
29575;DHT22;16507;51.046;6.406;2022-12-05T15:23:01;1.30;99.90
29575;DHT22;16507;51.046;6.406;2022-12-05T15:25:30;1.40;99.90
29575;DHT22;16507;51.046;6.406;2022-12-05T15:28:05;1.20;99.90
29575;DHT22;16507;51.046;6.406;2022-12-05T15:30:33;1.40;99.90
29575;DHT22;16507;51.046;6.406;2022-12-05T15:33:00;1.30;99.90
29575;DHT22;16507;51.046;6.406;2022-12-05T15:35:27;1.20;99.90
29575;DHT22;16507;51.046;6.406;2022-12-05T15:38:06;0.80;99.90
29575;DHT22;16507;51.046;6.406;2022-12-05T15:40:37;1.20;99.90
29575;DHT22;16507;51.046;6.406;2022-12-05T15:43:30;1.10;99.90
29575;DHT22;16507;51.046;6.406;2022-12-05T15:46:23;0.80;99.90
29575;DHT22;16507;51.046;6.406;2022-12-05T15:48:58;0.90;99.90
29575;DHT22;16507;51.046;6.406;2022-12-05T15:51:39;0.60;99.90
29575;DHT22;16507;51.046;6.406;2022-12-05T15:54:17;1.30;99.90
29575;DHT22;16507;51.046;6.406;2022-12-05T15:56:50;1.20;99.90
29575;DHT22;16507;51.046;6.406;2022-12-05T15:59:27;0.60;99.90
29575;DHT22;16507;51.046;6.406;2022-12-05T16:02:12;0.60;99.90
29575;DHT22;16507;51.046;6.406;2022-12-05T16:04:55;1.20;99.90
29575;DHT22;16507;51.046;6.406;2022-12-05T16:07:23;1.20;99.90
29575;DHT22;16507;51.046;6.406;2022-12-05T16:09:55;0.70;99.90
29575;DHT22;16507;51.046;6.406;2022-12-05T16:14:50;0.90;99.90
29575;DHT22;16507;51.046;6.406;2022-12-05T16:17:18;0.50;99.90
29575;DHT22;16507;51.046;6.406;2022-12-05T16:19:45;0.70;99.90
29575;DHT22;16507;51.046;6.406;2022-12-05T16:24:53;1.30;99.90
29575;DHT22;16507;51.046;6.406;2022-12-05T16:27:28;1.30;99.90
29575;DHT22;16507;51.046;6.406;2022-12-05T16:32:38;1.30;99.90
29575;DHT22;16507;51.046;6.406;2022-12-05T16:40:35;1.30;99.90
29575;DHT22;16507;51.046;6.406;2022-12-05T16:43:15;0.90;99.90
29575;DHT22;16507;51.046;6.406;2022-12-05T16:45:43;0.50;99.90
29575;DHT22;16507;51.046;6.406;2022-12-05T16:48:15;1.30;99.90
29575;DHT22;16507;51.046;6.406;2022-12-05T16:50:41;1.10;99.90
29575;DHT22;16507;51.046;6.406;2022-12-05T16:55:35;0.30;99.90
29575;DHT22;16507;51.046;6.406;2022-12-05T16:58:07;0.60;99.90
29575;DHT22;16507;51.046;6.406;2022-12-05T17:00:34;1.30;99.90
29575;DHT22;16507;51.046;6.406;2022-12-05T17:03:02;0.70;99.90
29575;DHT22;16507;51.046;6.406;2022-12-05T17:05:28;0.30;99.90
29575;DHT22;16507;51.046;6.406;2022-12-05T17:07:54;0.20;99.90
29575;DHT22;16507;51.046;6.406;2022-12-05T17:10:20;1.40;99.90
29575;DHT22;16507;51.046;6.406;2022-12-05T17:12:46;1.30;99.90
29575;DHT22;16507;51.046;6.406;2022-12-05T17:15:18;0.80;99.90
29575;DHT22;16507;51.046;6.406;2022-12-05T17:17:45;0.60;99.90
29575;DHT22;16507;51.046;6.406;2022-12-05T17:20:11;1.20;99.90
29575;DHT22;16507;51.046;6.406;2022-12-05T17:22:38;1.40;99.90
29575;DHT22;16507;51.046;6.406;2022-12-05T17:25:27;0.60;99.90
29575;DHT22;16507;51.046;6.406;2022-12-05T17:27:55;1.30;99.90
29575;DHT22;16507;51.046;6.406;2022-12-05T17:30:22;0.30;99.90
29575;DHT22;16507;51.046;6.406;2022-12-05T17:32:47;0.20;99.90
29575;DHT22;16507;51.046;6.406;2022-12-05T17:35:15;1.20;99.90
29575;DHT22;16507;51.046;6.406;2022-12-05T17:37:41;1.10;99.90
29575;DHT22;16507;51.046;6.406;2022-12-05T17:40:07;0.80;99.90
29575;DHT22;16507;51.046;6.406;2022-12-05T17:42:32;1.30;99.90
29575;DHT22;16507;51.046;6.406;2022-12-05T17:44:58;1.30;99.90
29575;DHT22;16507;51.046;6.406;2022-12-05T17:47:24;1.40;99.90
29575;DHT22;16507;51.046;6.406;2022-12-05T17:49:49;1.40;99.90
29575;DHT22;16507;51.046;6.406;2022-12-05T17:52:15;0.30;99.90
29575;DHT22;16507;51.046;6.406;2022-12-05T17:54:41;0.90;99.90
29575;DHT22;16507;51.046;6.406;2022-12-05T17:57:06;0.30;99.90
29575;DHT22;16507;51.046;6.406;2022-12-05T17:59:32;1.00;99.90
29575;DHT22;16507;51.046;6.406;2022-12-05T18:01:57;0.20;99.90
29575;DHT22;16507;51.046;6.406;2022-12-05T18:04:23;0.80;99.90
29575;DHT22;16507;51.046;6.406;2022-12-05T18:06:49;0.50;99.90
29575;DHT22;16507;51.046;6.406;2022-12-05T18:09:14;1.20;99.90
29575;DHT22;16507;51.046;6.406;2022-12-05T18:11:40;1.40;99.90
29575;DHT22;16507;51.046;6.406;2022-12-05T18:14:05;0.30;99.90
29575;DHT22;16507;51.046;6.406;2022-12-05T18:16:31;1.30;99.90
29575;DHT22;16507;51.046;6.406;2022-12-05T18:18:56;0.10;99.90
29575;DHT22;16507;51.046;6.406;2022-12-05T18:21:22;1.30;99.90
29575;DHT22;16507;51.046;6.406;2022-12-05T18:23:48;0.70;99.90
29575;DHT22;16507;51.046;6.406;2022-12-05T18:26:13;1.00;99.90
29575;DHT22;16507;51.046;6.406;2022-12-05T18:28:39;0.20;99.90
29575;DHT22;16507;51.046;6.406;2022-12-05T18:31:15;0.20;99.90
29575;DHT22;16507;51.046;6.406;2022-12-05T18:33:42;0.40;99.90
29575;DHT22;16507;51.046;6.406;2022-12-05T18:36:10;0.40;99.90
29575;DHT22;16507;51.046;6.406;2022-12-05T18:38:37;1.50;99.90
29575;DHT22;16507;51.046;6.406;2022-12-05T18:41:04;0.30;99.90
29575;DHT22;16507;51.046;6.406;2022-12-05T18:43:31;1.50;99.90
29575;DHT22;16507;51.046;6.406;2022-12-05T18:45:58;0.20;99.90
29575;DHT22;16507;51.046;6.406;2022-12-05T18:48:25;0.30;99.90
29575;DHT22;16507;51.046;6.406;2022-12-05T18:50:51;0.80;99.90
29575;DHT22;16507;51.046;6.406;2022-12-05T18:53:17;0.20;99.90